Terminal Aerodrome Forecast
Issued by NWS Charleston, WV

Current Version | Previous Version | Text Only | Print | Product List | Glossary Off
Versions: 1 2 3 4 5 6 7 8 9 10 11 12 13 14 15 16 17 18 19 20 21 22 23 24

000
FTUS41 KRLX 040500 RRA
TAFBKW
TAF
KBKW 040543Z 0406/0506 22012G18KT 2SM -RA BR BKN008 OVC015
     FM040900 23010KT 2SM -RA BR OVC004
     FM041400 34006KT 3SM -RA OVC008
     FM041700 VRB03KT 5SM -RA BR OVC008
     FM050100 36009KT 2SM +RA BR OVC008=

USA.gov is the U.S. government's official web portal to all federal, state and local government web resources and services.